sensor_id;sensor_type;location;lat;lon;timestamp;temperature;humidity
30134;DHT22;16946;49.984;10.672;2024-01-07T00:00:26;3.80;99.90
30134;DHT22;16946;49.984;10.672;2024-01-07T00:00:57;3.80;99.90
30134;DHT22;16946;49.984;10.672;2024-01-07T00:01:28;3.80;99.90
30134;DHT22;16946;49.984;10.672;2024-01-07T00:01:58;3.80;99.90
30134;DHT22;16946;49.984;10.672;2024-01-07T00:02:29;3.80;99.90
30134;DHT22;16946;49.984;10.672;2024-01-07T00:03:01;3.80;99.90
30134;DHT22;16946;49.984;10.672;2024-01-07T00:03:31;3.70;99.90
30134;DHT22;16946;49.984;10.672;2024-01-07T00:04:02;3.70;99.90
30134;DHT22;16946;49.984;10.672;2024-01-07T00:04:32;3.70;99.90
30134;DHT22;16946;49.984;10.672;2024-01-07T00:05:05;3.60;99.90
30134;DHT22;16946;49.984;10.672;2024-01-07T00:05:36;3.60;99.90
30134;DHT22;16946;49.984;10.672;2024-01-07T00:06:08;3.60;99.90
30134;DHT22;16946;49.984;10.672;2024-01-07T00:06:38;3.60;99.90
30134;DHT22;16946;49.984;10.672;2024-01-07T00:07:09;3.70;99.90
30134;DHT22;16946;49.984;10.672;2024-01-07T00:07:39;3.70;99.90
30134;DHT22;16946;49.984;10.672;2024-01-07T00:08:10;3.70;99.90
30134;DHT22;16946;49.984;10.672;2024-01-07T00:08:40;3.70;99.90
30134;DHT22;16946;49.984;10.672;2024-01-07T00:09:11;3.70;99.90
30134;DHT22;16946;49.984;10.672;2024-01-07T00:09:43;3.70;99.90
30134;DHT22;16946;49.984;10.672;2024-01-07T00:10:13;3.70;99.90
30134;DHT22;16946;49.984;10.672;2024-01-07T00:10:44;3.70;99.90
30134;DHT22;16946;49.984;10.672;2024-01-07T00:11:14;3.80;99.90
30134;DHT22;16946;49.984;10.672;2024-01-07T00:11:45;3.80;99.90
30134;DHT22;16946;49.984;10.672;2024-01-07T00:12:15;3.80;99.90
30134;DHT22;16946;49.984;10.672;2024-01-07T00:12:46;3.80;99.90
30134;DHT22;16946;49.984;10.672;2024-01-07T00:13:16;3.70;99.90
30134;DHT22;16946;49.984;10.672;2024-01-07T00:13:47;3.80;99.90
30134;DHT22;16946;49.984;10.672;2024-01-07T00:14:18;3.80;99.90
30134;DHT22;16946;49.984;10.672;2024-01-07T00:14:48;3.80;99.90
30134;DHT22;16946;49.984;10.672;2024-01-07T00:15:19;3.80;99.90
30134;DHT22;16946;49.984;10.672;2024-01-07T00:15:50;3.80;99.90
30134;DHT22;16946;49.984;10.672;2024-01-07T00:16:20;3.80;99.90
30134;DHT22;16946;49.984;10.672;2024-01-07T00:16:51;3.80;99.90
30134;DHT22;16946;49.984;10.672;2024-01-07T00:17:21;3.80;99.90
30134;DHT22;16946;49.984;10.672;2024-01-07T00:17:52;3.80;99.90
30134;DHT22;16946;49.984;10.672;2024-01-07T00:18:22;3.80;99.90
30134;DHT22;16946;49.984;10.672;2024-01-07T00:18:54;3.80;99.90
30134;DHT22;16946;49.984;10.672;2024-01-07T00:19:24;3.80;99.90
30134;DHT22;16946;49.984;10.672;2024-01-07T00:19:55;3.70;99.90
30134;DHT22;16946;49.984;10.672;2024-01-07T00:20:26;3.80;99.90
30134;DHT22;16946;49.984;10.672;2024-01-07T00:20:56;3.80;99.90
30134;DHT22;16946;49.984;10.672;2024-01-07T00:21:27;3.80;99.90
30134;DHT22;16946;49.984;10.672;2024-01-07T00:21:57;3.80;99.90
30134;DHT22;16946;49.984;10.672;2024-01-07T00:22:28;3.80;99.90
30134;DHT22;16946;49.984;10.672;2024-01-07T00:22:58;3.80;99.90
30134;DHT22;16946;49.984;10.672;2024-01-07T00:23:29;3.80;99.90
30134;DHT22;16946;49.984;10.672;2024-01-07T00:23:59;4.00;99.90
30134;DHT22;16946;49.984;10.672;2024-01-07T00:24:30;4.10;99.90
30134;DHT22;16946;49.984;10.672;2024-01-07T00:25:00;4.20;99.90
30134;DHT22;16946;49.984;10.672;2024-01-07T00:25:31;4.20;99.90
30134;DHT22;16946;49.984;10.672;2024-01-07T00:26:02;4.20;99.90
30134;DHT22;16946;49.984;10.672;2024-01-07T00:26:33;4.20;99.90
30134;DHT22;16946;49.984;10.672;2024-01-07T00:27:04;4.30;99.90
30134;DHT22;16946;49.984;10.672;2024-01-07T00:27:35;4.20;99.90
30134;DHT22;16946;49.984;10.672;2024-01-07T00:28:05;4.20;99.90
30134;DHT22;16946;49.984;10.672;2024-01-07T00:28:36;4.20;99.90
30134;DHT22;16946;49.984;10.672;2024-01-07T00:29:06;4.10;99.90
30134;DHT22;16946;49.984;10.672;2024-01-07T00:29:37;4.10;99.90
30134;DHT22;16946;49.984;10.672;2024-01-07T00:30:08;4.10;99.90
30134;DHT22;16946;49.984;10.672;2024-01-07T00:30:38;4.10;99.90
30134;DHT22;16946;49.984;10.672;2024-01-07T00:31:12;4.10;99.90
30134;DHT22;16946;49.984;10.672;2024-01-07T00:31:42;4.00;99.90
30134;DHT22;16946;49.984;10.672;2024-01-07T00:32:13;4.00;99.90
30134;DHT22;16946;49.984;10.672;2024-01-07T00:32:43;4.00;99.90
30134;DHT22;16946;49.984;10.672;2024-01-07T00:33:14;4.00;99.90
30134;DHT22;16946;49.984;10.672;2024-01-07T00:33:45;4.00;99.90
30134;DHT22;16946;49.984;10.672;2024-01-07T00:34:15;4.00;99.90
30134;DHT22;16946;49.984;10.672;2024-01-07T00:34:46;4.00;99.90
30134;DHT22;16946;49.984;10.672;2024-01-07T00:35:17;4.10;99.90
30134;DHT22;16946;49.984;10.672;2024-01-07T00:35:47;4.00;99.90
30134;DHT22;16946;49.984;10.672;2024-01-07T00:36:18;4.00;99.90
30134;DHT22;16946;49.984;10.672;2024-01-07T00:36:48;4.00;99.90
30134;DHT22;16946;49.984;10.672;2024-01-07T00:37:19;4.10;99.90
30134;DHT22;16946;49.984;10.672;2024-01-07T00:37:49;4.00;99.90
30134;DHT22;16946;49.984;10.672;2024-01-07T00:38:20;4.10;99.90
30134;DHT22;16946;49.984;10.672;2024-01-07T00:38:50;4.10;99.90
30134;DHT22;16946;49.984;10.672;2024-01-07T00:39:21;4.10;99.90
30134;DHT22;16946;49.984;10.672;2024-01-07T00:39:51;4.10;99.90
30134;DHT22;16946;49.984;10.672;2024-01-07T00:40:23;4.20;99.90
30134;DHT22;16946;49.984;10.672;2024-01-07T00:40:53;4.20;99.90
30134;DHT22;16946;49.984;10.672;2024-01-07T00:41:24;4.30;99.90
30134;DHT22;16946;49.984;10.672;2024-01-07T00:41:55;4.30;99.90
30134;DHT22;16946;49.984;10.672;2024-01-07T00:42:25;4.40;99.90
30134;DHT22;16946;49.984;10.672;2024-01-07T00:42:56;4.40;99.90
30134;DHT22;16946;49.984;10.672;2024-01-07T00:43:26;4.40;99.90
30134;DHT22;16946;49.984;10.672;2024-01-07T00:43:57;4.40;99.90
30134;DHT22;16946;49.984;10.672;2024-01-07T00:44:27;4.30;99.90
30134;DHT22;16946;49.984;10.672;2024-01-07T00:44:58;4.30;99.90
30134;DHT22;16946;49.984;10.672;2024-01-07T00:45:28;4.30;99.90
30134;DHT22;16946;49.984;10.672;2024-01-07T00:45:59;4.30;99.90
30134;DHT22;16946;49.984;10.672;2024-01-07T00:46:29;4.30;99.90
30134;DHT22;16946;49.984;10.672;2024-01-07T00:47:00;4.20;99.90
30134;DHT22;16946;49.984;10.672;2024-01-07T00:47:30;4.30;99.90
30134;DHT22;16946;49.984;10.672;2024-01-07T00:48:01;4.30;99.90
30134;DHT22;16946;49.984;10.672;2024-01-07T00:48:31;4.30;99.90
30134;DHT22;16946;49.984;10.672;2024-01-07T00:49:02;4.30;99.90
30134;DHT22;16946;49.984;10.672;2024-01-07T00:49:33;4.30;99.90
30134;DHT22;16946;49.984;10.672;2024-01-07T00:50:03;4.20;99.90
30134;DHT22;16946;49.984;10.672;2024-01-07T00:50:34;4.30;99.90
30134;DHT22;16946;49.984;10.672;2024-01-07T00:51:05;4.30;99.90
30134;DHT22;16946;49.984;10.672;2024-01-07T00:51:35;4.30;99.90
30134;DHT22;16946;49.984;10.672;2024-01-07T00:52:06;4.40;99.90
30134;DHT22;16946;49.984;10.672;2024-01-07T00:52:36;4.40;99.90
30134;DHT22;16946;49.984;10.672;2024-01-07T00:53:12;4.40;99.90
30134;DHT22;16946;49.984;10.672;2024-01-07T00:53:43;4.50;99.90
30134;DHT22;16946;49.984;10.672;2024-01-07T00:54:14;4.50;99.90
30134;DHT22;16946;49.984;10.672;2024-01-07T00:54:45;4.60;99.90
30134;DHT22;16946;49.984;10.672;2024-01-07T00:55:15;4.60;99.90
30134;DHT22;16946;49.984;10.672;2024-01-07T00:55:46;4.60;99.90
30134;DHT22;16946;49.984;10.672;2024-01-07T00:56:16;4.50;99.90
30134;DHT22;16946;49.984;10.672;2024-01-07T00:56:47;4.50;99.90
30134;DHT22;16946;49.984;10.672;2024-01-07T00:57:17;4.60;99.90
30134;DHT22;16946;49.984;10.672;2024-01-07T00:57:48;4.50;99.90
30134;DHT22;16946;49.984;10.672;2024-01-07T00:58:18;4.50;99.90
30134;DHT22;16946;49.984;10.672;2024-01-07T00:58:49;4.50;99.90
30134;DHT22;16946;49.984;10.672;2024-01-07T00:59:19;4.50;99.90
30134;DHT22;16946;49.984;10.672;2024-01-07T00:59:50;4.50;99.90
30134;DHT22;16946;49.984;10.672;2024-01-07T01:00:21;4.40;99.90
30134;DHT22;16946;49.984;10.672;2024-01-07T01:00:52;4.40;99.90
30134;DHT22;16946;49.984;10.672;2024-01-07T01:01:24;4.40;99.90
30134;DHT22;16946;49.984;10.672;2024-01-07T01:01:54;4.50;99.90
30134;DHT22;16946;49.984;10.672;2024-01-07T01:02:25;4.50;99.90
30134;DHT22;16946;49.984;10.672;2024-01-07T01:02:56;4.60;99.90
30134;DHT22;16946;49.984;10.672;2024-01-07T01:03:27;4.60;99.90
30134;DHT22;16946;49.984;10.672;2024-01-07T01:03:57;4.60;99.90
30134;DHT22;16946;49.984;10.672;2024-01-07T01:04:28;4.60;99.90
30134;DHT22;16946;49.984;10.672;2024-01-07T01:04:58;4.70;99.90
30134;DHT22;16946;49.984;10.672;2024-01-07T01:05:29;4.70;99.90
30134;DHT22;16946;49.984;10.672;2024-01-07T01:05:59;4.70;99.90
30134;DHT22;16946;49.984;10.672;2024-01-07T01:06:30;4.70;99.90
30134;DHT22;16946;49.984;10.672;2024-01-07T01:07:00;4.60;99.90
30134;DHT22;16946;49.984;10.672;2024-01-07T01:07:31;4.70;99.90
30134;DHT22;16946;49.984;10.672;2024-01-07T01:08:02;4.60;99.90
30134;DHT22;16946;49.984;10.672;2024-01-07T01:08:32;4.60;99.90
30134;DHT22;16946;49.984;10.672;2024-01-07T01:09:03;4.60;99.90
30134;DHT22;16946;49.984;10.672;2024-01-07T01:09:33;4.70;99.90
30134;DHT22;16946;49.984;10.672;2024-01-07T01:10:04;4.80;99.90
30134;DHT22;16946;49.984;10.672;2024-01-07T01:10:35;4.80;99.90
30134;DHT22;16946;49.984;10.672;2024-01-07T01:11:09;4.80;99.90
30134;DHT22;16946;49.984;10.672;2024-01-07T01:11:40;4.80;99.90
30134;DHT22;16946;49.984;10.672;2024-01-07T01:12:10;4.90;99.90
30134;DHT22;16946;49.984;10.672;2024-01-07T01:12:41;4.90;99.90
30134;DHT22;16946;49.984;10.672;2024-01-07T01:13:11;4.90;99.90
30134;DHT22;16946;49.984;10.672;2024-01-07T01:13:42;4.90;99.90
30134;DHT22;16946;49.984;10.672;2024-01-07T01:14:12;5.00;99.90
30134;DHT22;16946;49.984;10.672;2024-01-07T01:14:43;5.00;99.90
30134;DHT22;16946;49.984;10.672;2024-01-07T01:15:14;5.00;99.90
30134;DHT22;16946;49.984;10.672;2024-01-07T01:15:46;4.90;99.90
30134;DHT22;16946;49.984;10.672;2024-01-07T01:16:17;5.00;99.90
30134;DHT22;16946;49.984;10.672;2024-01-07T01:16:48;5.00;99.90
30134;DHT22;16946;49.984;10.672;2024-01-07T01:17:18;5.00;99.90
30134;DHT22;16946;49.984;10.672;2024-01-07T01:17:48;5.00;99.90
30134;DHT22;16946;49.984;10.672;2024-01-07T01:18:19;5.00;99.90
30134;DHT22;16946;49.984;10.672;2024-01-07T01:18:50;5.00;99.90
30134;DHT22;16946;49.984;10.672;2024-01-07T01:19:20;5.10;99.90
30134;DHT22;16946;49.984;10.672;2024-01-07T01:19:51;5.10;99.90
30134;DHT22;16946;49.984;10.672;2024-01-07T01:20:21;5.10;99.90
30134;DHT22;16946;49.984;10.672;2024-01-07T01:20:52;5.10;99.90
30134;DHT22;16946;49.984;10.672;2024-01-07T01:21:22;5.10;99.90
30134;DHT22;16946;49.984;10.672;2024-01-07T01:21:53;5.20;99.90
30134;DHT22;16946;49.984;10.672;2024-01-07T01:22:24;5.20;99.90
30134;DHT22;16946;49.984;10.672;2024-01-07T01:22:55;5.20;99.90
30134;DHT22;16946;49.984;10.672;2024-01-07T01:23:25;5.20;99.90
30134;DHT22;16946;49.984;10.672;2024-01-07T01:23:56;5.30;99.90
30134;DHT22;16946;49.984;10.672;2024-01-07T01:24:26;5.30;99.90
30134;DHT22;16946;49.984;10.672;2024-01-07T01:24:57;5.30;99.90
30134;DHT22;16946;49.984;10.672;2024-01-07T01:25:28;5.30;99.90
30134;DHT22;16946;49.984;10.672;2024-01-07T01:26:00;5.30;99.90
30134;DHT22;16946;49.984;10.672;2024-01-07T01:26:30;5.20;99.90
30134;DHT22;16946;49.984;10.672;2024-01-07T01:27:01;5.20;99.90
30134;DHT22;16946;49.984;10.672;2024-01-07T01:27:31;5.20;99.90
30134;DHT22;16946;49.984;10.672;2024-01-07T01:28:02;5.20;99.90
30134;DHT22;16946;49.984;10.672;2024-01-07T01:28:33;5.10;99.90
30134;DHT22;16946;49.984;10.672;2024-01-07T01:29:03;5.20;99.90
30134;DHT22;16946;49.984;10.672;2024-01-07T01:29:34;5.20;99.90
30134;DHT22;16946;49.984;10.672;2024-01-07T01:30:05;5.20;99.90
30134;DHT22;16946;49.984;10.672;2024-01-07T01:30:35;5.20;99.90
30134;DHT22;16946;49.984;10.672;2024-01-07T01:31:06;5.20;99.90
30134;DHT22;16946;49.984;10.672;2024-01-07T01:31:36;5.20;99.90
30134;DHT22;16946;49.984;10.672;2024-01-07T01:32:07;5.10;99.90
30134;DHT22;16946;49.984;10.672;2024-01-07T01:32:38;5.00;99.90
30134;DHT22;16946;49.984;10.672;2024-01-07T01:33:09;5.00;99.90
30134;DHT22;16946;49.984;10.672;2024-01-07T01:33:39;5.00;99.90
30134;DHT22;16946;49.984;10.672;2024-01-07T01:34:10;5.00;99.90
30134;DHT22;16946;49.984;10.672;2024-01-07T01:34:40;5.00;99.90
30134;DHT22;16946;49.984;10.672;2024-01-07T01:35:11;5.00;99.90
30134;DHT22;16946;49.984;10.672;2024-01-07T01:35:41;5.00;99.90
30134;DHT22;16946;49.984;10.672;2024-01-07T01:36:12;5.00;99.90
30134;DHT22;16946;49.984;10.672;2024-01-07T01:36:42;4.90;99.90
30134;DHT22;16946;49.984;10.672;2024-01-07T01:37:13;4.90;99.90
30134;DHT22;16946;49.984;10.672;2024-01-07T01:37:44;4.90;99.90
30134;DHT22;16946;49.984;10.672;2024-01-07T01:38:14;4.90;99.90
30134;DHT22;16946;49.984;10.672;2024-01-07T01:38:44;4.90;99.90
30134;DHT22;16946;49.984;10.672;2024-01-07T01:39:15;4.90;99.90
30134;DHT22;16946;49.984;10.672;2024-01-07T01:39:46;5.00;99.90
30134;DHT22;16946;49.984;10.672;2024-01-07T01:40:17;5.00;99.90
30134;DHT22;16946;49.984;10.672;2024-01-07T01:40:52;5.00;99.90
30134;DHT22;16946;49.984;10.672;2024-01-07T01:41:23;5.00;99.90
30134;DHT22;16946;49.984;10.672;2024-01-07T01:41:53;5.00;99.90
30134;DHT22;16946;49.984;10.672;2024-01-07T01:42:24;5.00;99.90
30134;DHT22;16946;49.984;10.672;2024-01-07T01:42:55;5.00;99.90
30134;DHT22;16946;49.984;10.672;2024-01-07T01:43:26;5.00;99.90
30134;DHT22;16946;49.984;10.672;2024-01-07T01:43:58;5.00;99.90
30134;DHT22;16946;49.984;10.672;2024-01-07T01:44:29;5.00;99.90
30134;DHT22;16946;49.984;10.672;2024-01-07T01:44:59;5.10;99.90
30134;DHT22;16946;49.984;10.672;2024-01-07T01:45:31;5.10;99.90
30134;DHT22;16946;49.984;10.672;2024-01-07T01:46:02;5.10;99.90
30134;DHT22;16946;49.984;10.672;2024-01-07T01:46:33;5.00;99.90
30134;DHT22;16946;49.984;10.672;2024-01-07T01:47:05;5.00;99.90
30134;DHT22;16946;49.984;10.672;2024-01-07T01:47:37;5.00;99.90
30134;DHT22;16946;49.984;10.672;2024-01-07T01:48:07;5.00;99.90
30134;DHT22;16946;49.984;10.672;2024-01-07T01:48:38;5.00;99.90
30134;DHT22;16946;49.984;10.672;2024-01-07T01:49:08;5.00;99.90
30134;DHT22;16946;49.984;10.672;2024-01-07T01:49:40;5.10;99.90
30134;DHT22;16946;49.984;10.672;2024-01-07T01:50:11;5.10;99.90
30134;DHT22;16946;49.984;10.672;2024-01-07T01:50:42;5.10;99.90
30134;DHT22;16946;49.984;10.672;2024-01-07T01:51:12;5.10;99.90
30134;DHT22;16946;49.984;10.672;2024-01-07T01:51:43;5.00;99.90
30134;DHT22;16946;49.984;10.672;2024-01-07T01:52:14;5.00;99.90
30134;DHT22;16946;49.984;10.672;2024-01-07T01:52:45;4.90;99.90
30134;DHT22;16946;49.984;10.672;2024-01-07T01:53:16;4.90;99.90
30134;DHT22;16946;49.984;10.672;2024-01-07T01:53:47;4.90;99.90
30134;DHT22;16946;49.984;10.672;2024-01-07T01:54:20;4.90;99.90
30134;DHT22;16946;49.984;10.672;2024-01-07T01:54:51;4.90;99.90
30134;DHT22;16946;49.984;10.672;2024-01-07T01:55:22;4.90;99.90
30134;DHT22;16946;49.984;10.672;2024-01-07T01:55:55;4.80;99.90
30134;DHT22;16946;49.984;10.672;2024-01-07T01:56:27;4.80;99.90
30134;DHT22;16946;49.984;10.672;2024-01-07T01:56:59;4.80;99.90
30134;DHT22;16946;49.984;10.672;2024-01-07T01:57:33;4.80;99.90
30134;DHT22;16946;49.984;10.672;2024-01-07T01:58:06;4.80;99.90
30134;DHT22;16946;49.984;10.672;2024-01-07T01:58:39;4.80;99.90
30134;DHT22;16946;49.984;10.672;2024-01-07T01:59:09;4.80;99.90
30134;DHT22;16946;49.984;10.672;2024-01-07T01:59:41;4.80;99.90
30134;DHT22;16946;49.984;10.672;2024-01-07T02:00:13;4.80;99.90
30134;DHT22;16946;49.984;10.672;2024-01-07T02:00:44;4.80;99.90
30134;DHT22;16946;49.984;10.672;2024-01-07T02:01:15;4.80;99.90
30134;DHT22;16946;49.984;10.672;2024-01-07T02:01:46;4.80;99.90
30134;DHT22;16946;49.984;10.672;2024-01-07T02:02:16;4.80;99.90
30134;DHT22;16946;49.984;10.672;2024-01-07T02:02:47;4.80;99.90
30134;DHT22;16946;49.984;10.672;2024-01-07T02:03:18;4.80;99.90
30134;DHT22;16946;49.984;10.672;2024-01-07T02:03:49;4.80;99.90
30134;DHT22;16946;49.984;10.672;2024-01-07T02:04:19;4.80;99.90
30134;DHT22;16946;49.984;10.672;2024-01-07T02:04:50;4.80;99.90
30134;DHT22;16946;49.984;10.672;2024-01-07T02:05:21;4.80;99.90
30134;DHT22;16946;49.984;10.672;2024-01-07T02:05:52;4.80;99.90
30134;DHT22;16946;49.984;10.672;2024-01-07T02:06:24;4.90;99.90
30134;DHT22;16946;49.984;10.672;2024-01-07T02:06:55;4.80;99.90
30134;DHT22;16946;49.984;10.672;2024-01-07T02:07:26;4.90;99.90
30134;DHT22;16946;49.984;10.672;2024-01-07T02:07:58;4.80;99.90
30134;DHT22;16946;49.984;10.672;2024-01-07T02:08:29;4.90;99.90
30134;DHT22;16946;49.984;10.672;2024-01-07T02:09:00;4.90;99.90
30134;DHT22;16946;49.984;10.672;2024-01-07T02:09:30;4.80;99.90
30134;DHT22;16946;49.984;10.672;2024-01-07T02:10:01;4.80;99.90
30134;DHT22;16946;49.984;10.672;2024-01-07T02:10:31;4.90;99.90
30134;DHT22;16946;49.984;10.672;2024-01-07T02:11:15;4.90;99.90
30134;DHT22;16946;49.984;10.672;2024-01-07T02:12:03;4.90;99.90
30134;DHT22;16946;49.984;10.672;2024-01-07T02:12:35;4.90;99.90
30134;DHT22;16946;49.984;10.672;2024-01-07T02:13:06;5.00;99.90
30134;DHT22;16946;49.984;10.672;2024-01-07T02:13:36;4.90;99.90
30134;DHT22;16946;49.984;10.672;2024-01-07T02:14:07;4.90;99.90
30134;DHT22;16946;49.984;10.672;2024-01-07T02:14:38;5.00;99.90
30134;DHT22;16946;49.984;10.672;2024-01-07T02:15:09;5.00;99.90
30134;DHT22;16946;49.984;10.672;2024-01-07T02:15:40;4.90;99.90
30134;DHT22;16946;49.984;10.672;2024-01-07T02:16:10;4.90;99.90
30134;DHT22;16946;49.984;10.672;2024-01-07T02:16:41;4.90;99.90
30134;DHT22;16946;49.984;10.672;2024-01-07T02:17:11;4.90;99.90
30134;DHT22;16946;49.984;10.672;2024-01-07T02:17:42;4.90;99.90
30134;DHT22;16946;49.984;10.672;2024-01-07T02:18:13;4.90;99.90
30134;DHT22;16946;49.984;10.672;2024-01-07T02:18:45;4.90;99.90
30134;DHT22;16946;49.984;10.672;2024-01-07T02:19:16;4.80;99.90
30134;DHT22;16946;49.984;10.672;2024-01-07T02:19:46;4.70;99.90
30134;DHT22;16946;49.984;10.672;2024-01-07T02:20:17;4.60;99.90
30134;DHT22;16946;49.984;10.672;2024-01-07T02:20:47;4.60;99.90
30134;DHT22;16946;49.984;10.672;2024-01-07T02:21:18;4.60;99.90
30134;DHT22;16946;49.984;10.672;2024-01-07T02:21:51;4.60;99.90
30134;DHT22;16946;49.984;10.672;2024-01-07T02:22:22;4.60;99.90
30134;DHT22;16946;49.984;10.672;2024-01-07T02:22:52;4.60;99.90
30134;DHT22;16946;49.984;10.672;2024-01-07T02:23:23;4.60;99.90
30134;DHT22;16946;49.984;10.672;2024-01-07T02:23:54;4.60;99.90
30134;DHT22;16946;49.984;10.672;2024-01-07T02:24:24;4.70;99.90
30134;DHT22;16946;49.984;10.672;2024-01-07T02:24:55;4.70;99.90
30134;DHT22;16946;49.984;10.672;2024-01-07T02:25:26;4.70;99.90
30134;DHT22;16946;49.984;10.672;2024-01-07T02:25:56;4.70;99.90
30134;DHT22;16946;49.984;10.672;2024-01-07T02:26:27;4.80;99.90
30134;DHT22;16946;49.984;10.672;2024-01-07T02:26:57;4.70;99.90
30134;DHT22;16946;49.984;10.672;2024-01-07T02:27:28;4.80;99.90
30134;DHT22;16946;49.984;10.672;2024-01-07T02:27:58;4.70;99.90
30134;DHT22;16946;49.984;10.672;2024-01-07T02:28:30;4.70;99.90
30134;DHT22;16946;49.984;10.672;2024-01-07T02:29:00;4.70;99.90
30134;DHT22;16946;49.984;10.672;2024-01-07T02:29:31;4.70;99.90
30134;DHT22;16946;49.984;10.672;2024-01-07T02:30:01;4.70;99.90
30134;DHT22;16946;49.984;10.672;2024-01-07T02:30:32;4.70;99.90
30134;DHT22;16946;49.984;10.672;2024-01-07T02:31:03;4.70;99.90
30134;DHT22;16946;49.984;10.672;2024-01-07T02:31:33;4.70;99.90
30134;DHT22;16946;49.984;10.672;2024-01-07T02:32:04;4.70;99.90
30134;DHT22;16946;49.984;10.672;2024-01-07T02:32:35;4.70;99.90
30134;DHT22;16946;49.984;10.672;2024-01-07T02:33:07;4.70;99.90
30134;DHT22;16946;49.984;10.672;2024-01-07T02:33:37;4.70;99.90
30134;DHT22;16946;49.984;10.672;2024-01-07T02:34:09;4.60;99.90
30134;DHT22;16946;49.984;10.672;2024-01-07T02:34:40;4.60;99.90
30134;DHT22;16946;49.984;10.672;2024-01-07T02:35:11;4.60;99.90
30134;DHT22;16946;49.984;10.672;2024-01-07T02:35:41;4.60;99.90
30134;DHT22;16946;49.984;10.672;2024-01-07T02:36:12;4.70;99.90
30134;DHT22;16946;49.984;10.672;2024-01-07T02:36:42;4.70;99.90
30134;DHT22;16946;49.984;10.672;2024-01-07T02:37:13;4.70;99.90
30134;DHT22;16946;49.984;10.672;2024-01-07T02:37:43;4.60;99.90
30134;DHT22;16946;49.984;10.672;2024-01-07T02:38:14;4.70;99.90
30134;DHT22;16946;49.984;10.672;2024-01-07T02:38:44;4.70;99.90
30134;DHT22;16946;49.984;10.672;2024-01-07T02:39:15;4.70;99.90
30134;DHT22;16946;49.984;10.672;2024-01-07T02:39:45;4.70;99.90
30134;DHT22;16946;49.984;10.672;2024-01-07T02:40:16;4.70;99.90
30134;DHT22;16946;49.984;10.672;2024-01-07T02:40:47;4.70;99.90
30134;DHT22;16946;49.984;10.672;2024-01-07T02:41:17;4.70;99.90
30134;DHT22;16946;49.984;10.672;2024-01-07T02:41:49;4.70;99.90
30134;DHT22;16946;49.984;10.672;2024-01-07T02:42:20;4.70;99.90
30134;DHT22;16946;49.984;10.672;2024-01-07T02:42:50;4.70;99.90
30134;DHT22;16946;49.984;10.672;2024-01-07T02:43:21;4.70;99.90
30134;DHT22;16946;49.984;10.672;2024-01-07T02:43:52;4.70;99.90
30134;DHT22;16946;49.984;10.672;2024-01-07T02:44:22;4.70;99.90
30134;DHT22;16946;49.984;10.672;2024-01-07T02:44:53;4.60;99.90
30134;DHT22;16946;49.984;10.672;2024-01-07T02:45:23;4.60;99.90
30134;DHT22;16946;49.984;10.672;2024-01-07T02:45:54;4.60;99.90
30134;DHT22;16946;49.984;10.672;2024-01-07T02:46:24;4.60;99.90
30134;DHT22;16946;49.984;10.672;2024-01-07T02:46:55;4.60;99.90
30134;DHT22;16946;49.984;10.672;2024-01-07T02:47:25;4.60;99.90
30134;DHT22;16946;49.984;10.672;2024-01-07T02:47:56;4.50;99.90
30134;DHT22;16946;49.984;10.672;2024-01-07T02:48:27;4.50;99.90
30134;DHT22;16946;49.984;10.672;2024-01-07T02:48:57;4.50;99.90
30134;DHT22;16946;49.984;10.672;2024-01-07T02:49:28;4.50;99.90
30134;DHT22;16946;49.984;10.672;2024-01-07T02:49:58;4.50;99.90
30134;DHT22;16946;49.984;10.672;2024-01-07T02:50:29;4.50;99.90
30134;DHT22;16946;49.984;10.672;2024-01-07T02:51:00;4.50;99.90
30134;DHT22;16946;49.984;10.672;2024-01-07T02:51:31;4.60;99.90
30134;DHT22;16946;49.984;10.672;2024-01-07T02:52:01;4.60;99.90
30134;DHT22;16946;49.984;10.672;2024-01-07T02:52:32;4.60;99.90
30134;DHT22;16946;49.984;10.672;2024-01-07T02:53:02;4.60;99.90
30134;DHT22;16946;49.984;10.672;2024-01-07T02:53:33;4.50;99.90
30134;DHT22;16946;49.984;10.672;2024-01-07T02:54:04;4.60;99.90
30134;DHT22;16946;49.984;10.672;2024-01-07T02:54:34;4.60;99.90
30134;DHT22;16946;49.984;10.672;2024-01-07T02:55:05;4.60;99.90
30134;DHT22;16946;49.984;10.672;2024-01-07T02:55:35;4.50;99.90
30134;DHT22;16946;49.984;10.672;2024-01-07T02:56:06;4.50;99.90
30134;DHT22;16946;49.984;10.672;2024-01-07T02:56:38;4.50;99.90
30134;DHT22;16946;49.984;10.672;2024-01-07T02:57:09;4.50;99.90
30134;DHT22;16946;49.984;10.672;2024-01-07T02:57:39;4.50;99.90
30134;DHT22;16946;49.984;10.672;2024-01-07T02:58:10;4.50;99.90
30134;DHT22;16946;49.984;10.672;2024-01-07T02:58:40;4.50;99.90
30134;DHT22;16946;49.984;10.672;2024-01-07T02:59:11;4.50;99.90
30134;DHT22;16946;49.984;10.672;2024-01-07T02:59:41;4.50;99.90
30134;DHT22;16946;49.984;10.672;2024-01-07T03:00:12;4.40;99.90
30134;DHT22;16946;49.984;10.672;2024-01-07T03:00:43;4.30;99.90
30134;DHT22;16946;49.984;10.672;2024-01-07T03:01:14;4.30;99.90
30134;DHT22;16946;49.984;10.672;2024-01-07T03:01:44;4.30;99.90
30134;DHT22;16946;49.984;10.672;2024-01-07T03:02:15;4.40;99.90
30134;DHT22;16946;49.984;10.672;2024-01-07T03:02:45;4.30;99.90
30134;DHT22;16946;49.984;10.672;2024-01-07T03:03:17;4.30;99.90
30134;DHT22;16946;49.984;10.672;2024-01-07T03:03:47;4.20;99.90
30134;DHT22;16946;49.984;10.672;2024-01-07T03:04:18;4.20;99.90
30134;DHT22;16946;49.984;10.672;2024-01-07T03:04:48;4.20;99.90
30134;DHT22;16946;49.984;10.672;2024-01-07T03:05:19;4.20;99.90
30134;DHT22;16946;49.984;10.672;2024-01-07T03:05:49;4.10;99.90
30134;DHT22;16946;49.984;10.672;2024-01-07T03:06:20;4.10;99.90
30134;DHT22;16946;49.984;10.672;2024-01-07T03:06:50;4.10;99.90
30134;DHT22;16946;49.984;10.672;2024-01-07T03:07:21;4.00;99.90
30134;DHT22;16946;49.984;10.672;2024-01-07T03:07:51;4.00;99.90
30134;DHT22;16946;49.984;10.672;2024-01-07T03:08:22;4.00;99.90
30134;DHT22;16946;49.984;10.672;2024-01-07T03:08:52;4.00;99.90
30134;DHT22;16946;49.984;10.672;2024-01-07T03:09:23;4.00;99.90
30134;DHT22;16946;49.984;10.672;2024-01-07T03:09:53;4.00;99.90
30134;DHT22;16946;49.984;10.672;2024-01-07T03:10:24;4.00;99.90
30134;DHT22;16946;49.984;10.672;2024-01-07T03:10:54;4.00;99.90
30134;DHT22;16946;49.984;10.672;2024-01-07T03:11:25;4.00;99.90
30134;DHT22;16946;49.984;10.672;2024-01-07T03:11:55;4.10;99.90
30134;DHT22;16946;49.984;10.672;2024-01-07T03:12:26;4.10;99.90
30134;DHT22;16946;49.984;10.672;2024-01-07T03:12:56;4.10;99.90
30134;DHT22;16946;49.984;10.672;2024-01-07T03:13:27;4.10;99.90
30134;DHT22;16946;49.984;10.672;2024-01-07T03:13:58;4.10;99.90
30134;DHT22;16946;49.984;10.672;2024-01-07T03:14:29;4.20;99.90
30134;DHT22;16946;49.984;10.672;2024-01-07T03:14:59;4.10;99.90